ACA64 RKSI-CYVR
Flight info
| Callsign | ACA64 |
|---|---|
| Flight time | N/A |
| Altitude | 35000 |
| Route | EGOBA2C/15R EGOBA Y697 LANAT Y51 SAMON Y142 GTC Y512 BEKEN/N0493F370 Y512 OATIS R580 OPAKE A342 DRAPP/N0492F390 A342 CDB DCT 55N160W 55N150W DCT SAYNT DCT KATCH DCT POWOL WHSLR8 |
| Aircraft | B789/H-SDE1E2E3FGHIJ2J3J4J5M1RWXY/LB1D1 |
Departure
| Time | 2026-05-07 06:02 |
|---|---|
| Airport | Incheon International Airport (RKSI) |
Arrival
| Time | N/A |
|---|---|
| Airport | Vancouver International Airport (CYVR) |
| Time | Latitude | Longitude | Altitude | Speed | Heading |
|---|---|---|---|---|---|
| 2026-05-07 05:59 | 37.47987 | 126.43390 | 37 ft | 3 kts | 340° |
| 2026-05-07 05:59 | 37.48020 | 126.43401 | 37 ft | 8 kts | 31° |
| 2026-05-07 05:59 | 37.48078 | 126.43493 | 37 ft | 16 kts | 55° |
| 2026-05-07 05:59 | 37.48140 | 126.43604 | 37 ft | 13 kts | 59° |
| 2026-05-07 06:00 | 37.48143 | 126.43675 | 36 ft | 2 kts | 124° |
| 2026-05-07 06:00 | 37.48136 | 126.43681 | 37 ft | 1 kts | 146° |
| 2026-05-07 06:00 | 37.48127 | 126.43688 | 37 ft | 7 kts | 146° |
| 2026-05-07 06:00 | 37.47966 | 126.43826 | 39 ft | 48 kts | 144° |
| 2026-05-07 06:01 | 37.47562 | 126.44186 | 39 ft | 94 kts | 144° |
| 2026-05-07 06:01 | 37.46907 | 126.44767 | 39 ft | 135 kts | 144° |
| 2026-05-07 06:01 | 37.46036 | 126.45542 | 39 ft | 170 kts | 145° |
| 2026-05-07 06:01 | 37.45084 | 126.46461 | 428 ft | 162 kts | 145° |
| 2026-05-07 06:02 | 37.44239 | 126.47385 | 819 ft | 165 kts | 141° |
| 2026-05-07 06:02 | 37.43604 | 126.48621 | 1113 ft | 171 kts | 119° |
| 2026-05-07 06:02 | 37.43038 | 126.49912 | 1426 ft | 170 kts | 125° |
| 2026-05-07 06:02 | 37.42374 | 126.51283 | 1420 ft | 197 kts | 129° |
| 2026-05-07 06:03 | 37.41503 | 126.52684 | 1836 ft | 200 kts | 137° |
| 2026-05-07 06:03 | 37.40531 | 126.54011 | 2054 ft | 219 kts | 140° |
| 2026-05-07 06:03 | 37.39500 | 126.55386 | 2608 ft | 216 kts | 138° |
| 2026-05-07 06:03 | 37.38469 | 126.56778 | 3173 ft | 219 kts | 138° |
| 2026-05-07 06:04 | 37.37418 | 126.58170 | 3691 ft | 219 kts | 143° |
| 2026-05-07 06:04 | 37.36099 | 126.58964 | 4167 ft | 209 kts | 171° |
| 2026-05-07 06:04 | 37.34703 | 126.59552 | 4693 ft | 214 kts | 166° |
| 2026-05-07 06:04 | 37.33291 | 126.60210 | 5211 ft | 218 kts | 167° |
| 2026-05-07 06:05 | 37.31849 | 126.60843 | 5724 ft | 221 kts | 169° |
| 2026-05-07 06:05 | 37.30385 | 126.61469 | 6232 ft | 225 kts | 169° |
| 2026-05-07 06:05 | 37.28873 | 126.62220 | 6477 ft | 247 kts | 154° |
| 2026-05-07 06:05 | 37.27679 | 126.63913 | 6730 ft | 274 kts | 122° |
| 2026-05-07 06:06 | 37.27270 | 126.66324 | 7000 ft | 294 kts | 91° |
| 2026-05-07 06:06 | 37.27382 | 126.68916 | 7260 ft | 304 kts | 85° |
| 2026-05-07 06:06 | 37.27600 | 126.71629 | 7520 ft | 319 kts | 86° |
| 2026-05-07 06:06 | 37.27772 | 126.74421 | 8152 ft | 322 kts | 88° |
| 2026-05-07 06:07 | 37.27905 | 126.77245 | 8830 ft | 326 kts | 89° |
| 2026-05-07 06:07 | 37.28046 | 126.80104 | 9532 ft | 331 kts | 88° |
| 2026-05-07 06:07 | 37.28207 | 126.83006 | 10180 ft | 336 kts | 88° |
| 2026-05-07 06:07 | 37.28369 | 126.85945 | 10856 ft | 339 kts | 88° |
| 2026-05-07 06:08 | 37.28535 | 126.88963 | 11134 ft | 359 kts | 85° |
| 2026-05-07 06:08 | 37.28910 | 126.92185 | 11172 ft | 385 kts | 84° |
| 2026-05-07 06:08 | 37.29160 | 126.95628 | 11227 ft | 408 kts | 86° |
| 2026-05-07 06:09 | 37.30401 | 127.09522 | 13433 ft | 430 kts | 84° |
| 2026-05-07 06:09 | 37.30891 | 127.13246 | 13958 ft | 435 kts | 71° |
| 2026-05-07 06:10 | 37.34351 | 127.23986 | 15519 ft | 443 kts | 51° |
| 2026-05-07 06:10 | 37.36404 | 127.26848 | 16065 ft | 441 kts | 37° |
| 2026-05-07 06:11 | 37.38855 | 127.29152 | 16533 ft | 442 kts | 31° |
| 2026-05-07 06:11 | 37.41376 | 127.31401 | 17060 ft | 446 kts | 30° |
| 2026-05-07 06:11 | 37.43929 | 127.33658 | 17553 ft | 451 kts | 31° |
| 2026-05-07 06:11 | 37.46291 | 127.36303 | 18085 ft | 460 kts | 45° |
| 2026-05-07 06:12 | 37.48197 | 127.39579 | 18454 ft | 469 kts | 59° |
| 2026-05-07 06:12 | 37.49507 | 127.43301 | 18816 ft | 475 kts | 73° |
| 2026-05-07 06:12 | 37.50262 | 127.47350 | 19242 ft | 478 kts | 79° |
| 2026-05-07 06:12 | 37.50932 | 127.51481 | 19569 ft | 483 kts | 80° |
| 2026-05-07 06:13 | 37.51584 | 127.55642 | 19988 ft | 486 kts | 80° |
| 2026-05-07 06:13 | 37.52248 | 127.59839 | 20345 ft | 491 kts | 80° |
| 2026-05-07 06:13 | 37.52929 | 127.64070 | 20741 ft | 495 kts | 80° |
| 2026-05-07 06:13 | 37.53611 | 127.68339 | 21070 ft | 499 kts | 80° |
| 2026-05-07 06:14 | 37.54290 | 127.72637 | 21438 ft | 502 kts | 80° |
| 2026-05-07 06:14 | 37.54973 | 127.76968 | 21788 ft | 506 kts | 81° |
| 2026-05-07 06:15 | 37.56986 | 127.89728 | 22805 ft | 515 kts | 81° |
| 2026-05-07 06:15 | 37.57446 | 127.92663 | 23028 ft | 517 kts | 81° |